Maxwell Air Force Base
KMXF : now visible

Airfield :











YOU CAN JOIN US ON...

 
LOGIN :

Register | Disclaimer

   EN    FR    IT 

 









Legend :    VFR   Marginal VFR   IFR   Intensive IFR   Very Intensive IFR
Visi :
Ceiling :
>= 8 km
>= 3000ft
5 to 8 km
1000 to 3000 ft
1500m to 5 km
500 to 1000 ft
800 to 1500m
200 to 500 ft
< 800m
< 200 ft
Symbols :   Thunderstorms  Fog  Heavy snow  Heavy precipitations  Wind > 20 kt






- Airport Elevation : 171 ft


KMXF - Maxwell Air Force Base

CURRENT METAR :
  • 171859Z 14008KT 10SM SCT055 28/14 A3012 RMK AO2A SLPNO

EXPIRED METARs :
  • 171756Z AUTO 16008KT 10SM BKN055 BKN070 27/14 A3013 RMK AO2 SLP205 T02660140 10272 20159 57014
  • 171656Z AUTO 12007G18KT 10SM FEW048 FEW170 26/15 A3015 RMK AO2 SLP211 T02640145

TAF TAF KMXF
Valid from the 17 at 11:00 until the 18 at 17:00 UTC


171100Z 1711/1817 VRB06KT 9999 FEW150 QNH3007INS
BECMG 1716/1717 15010KT 9999 FEW100 BKN200 QNH3007INS
BECMG 1723/1724 15006KT 9999 BKN100 BKN200 QNH3006INS
BECMG 1815/1816 15010G15KT 9999 BKN030 BKN100 QNH3015INS TX28/1720Z TN14/1711Z
KZTL FIR / North America



MET'MAP, your aeronautical weather chart ! - Copyright ORBIFLY December 2007 - Disclaimer

ORBIFLY MET'MAP TEAM :

Programming & Development : Alexandra Zaïnal
Concept & original design : Baudouin d'Aumeries
Assistance for programming : Marc-Olivier Méhu
Technical & hardware support : Manuel Goepfert

Contact : metmap@orbifly.com




SOURCES & CREDITS :

   NOAA       Earth
Advisory